sensor_id;sensor_type;location;lat;lon;timestamp;P1;durP1;ratioP1;P2;durP2;ratioP2
71162;SDS011;58858;50.948;6.566;2023-05-02T00:07:10;41.10;;;30.15;;
71162;SDS011;58858;50.948;6.566;2023-05-02T00:17:15;46.63;;;31.70;;
71162;SDS011;58858;50.948;6.566;2023-05-02T00:27:18;35.90;;;27.35;;
71162;SDS011;58858;50.948;6.566;2023-05-02T00:37:19;38.97;;;28.92;;
71162;SDS011;58858;50.948;6.566;2023-05-02T00:47:20;37.70;;;26.30;;
71162;SDS011;58858;50.948;6.566;2023-05-02T00:57:21;46.80;;;30.35;;
71162;SDS011;58858;50.948;6.566;2023-05-02T01:07:40;48.28;;;33.38;;
71162;SDS011;58858;50.948;6.566;2023-05-02T01:17:51;47.67;;;31.30;;
71162;SDS011;58858;50.948;6.566;2023-05-02T01:38:01;52.10;;;33.38;;
71162;SDS011;58858;50.948;6.566;2023-05-02T01:48:05;51.65;;;34.58;;
71162;SDS011;58858;50.948;6.566;2023-05-02T01:58:06;44.63;;;28.80;;
71162;SDS011;58858;50.948;6.566;2023-05-02T02:08:07;50.72;;;28.52;;
71162;SDS011;58858;50.948;6.566;2023-05-02T02:18:09;48.22;;;29.98;;
71162;SDS011;58858;50.948;6.566;2023-05-02T02:28:13;48.25;;;30.95;;
71162;SDS011;58858;50.948;6.566;2023-05-02T02:38:32;44.28;;;29.55;;
71162;SDS011;58858;50.948;6.566;2023-05-02T02:49:14;50.45;;;32.13;;
71162;SDS011;58858;50.948;6.566;2023-05-02T02:59:25;53.97;;;32.22;;
71162;SDS011;58858;50.948;6.566;2023-05-02T03:19:49;55.83;;;34.03;;
71162;SDS011;58858;50.948;6.566;2023-05-02T03:29:51;65.13;;;34.58;;
71162;SDS011;58858;50.948;6.566;2023-05-02T03:39:53;56.65;;;33.88;;
71162;SDS011;58858;50.948;6.566;2023-05-02T03:49:54;56.15;;;34.33;;
71162;SDS011;58858;50.948;6.566;2023-05-02T03:59:56;45.30;;;28.33;;
71162;SDS011;58858;50.948;6.566;2023-05-02T04:10:01;43.65;;;27.88;;
71162;SDS011;58858;50.948;6.566;2023-05-02T04:20:06;34.03;;;19.07;;
71162;SDS011;58858;50.948;6.566;2023-05-02T04:30:11;31.27;;;18.10;;
71162;SDS011;58858;50.948;6.566;2023-05-02T04:40:13;29.05;;;18.08;;
71162;SDS011;58858;50.948;6.566;2023-05-02T04:50:16;29.83;;;17.67;;
71162;SDS011;58858;50.948;6.566;2023-05-02T05:00:18;30.80;;;18.08;;
71162;SDS011;58858;50.948;6.566;2023-05-02T05:10:19;36.75;;;20.63;;
71162;SDS011;58858;50.948;6.566;2023-05-02T05:20:21;30.58;;;18.50;;
71162;SDS011;58858;50.948;6.566;2023-05-02T05:30:24;24.45;;;15.57;;
71162;SDS011;58858;50.948;6.566;2023-05-02T05:40:26;30.33;;;17.10;;
71162;SDS011;58858;50.948;6.566;2023-05-02T05:50:31;28.63;;;17.63;;
71162;SDS011;58858;50.948;6.566;2023-05-02T06:00:35;28.33;;;15.30;;
71162;SDS011;58858;50.948;6.566;2023-05-02T06:10:37;29.42;;;15.88;;
71162;SDS011;58858;50.948;6.566;2023-05-02T06:20:40;26.13;;;14.90;;
71162;SDS011;58858;50.948;6.566;2023-05-02T06:30:41;23.95;;;14.07;;
71162;SDS011;58858;50.948;6.566;2023-05-02T06:40:43;20.95;;;12.60;;
71162;SDS011;58858;50.948;6.566;2023-05-02T06:50:44;18.95;;;12.85;;
71162;SDS011;58858;50.948;6.566;2023-05-02T07:00:46;16.20;;;10.23;;
71162;SDS011;58858;50.948;6.566;2023-05-02T07:10:48;13.32;;;9.55;;
71162;SDS011;58858;50.948;6.566;2023-05-02T07:20:50;13.23;;;7.05;;
71162;SDS011;58858;50.948;6.566;2023-05-02T07:30:51;9.85;;;3.85;;
71162;SDS011;58858;50.948;6.566;2023-05-02T07:40:56;10.63;;;4.25;;
71162;SDS011;58858;50.948;6.566;2023-05-02T07:51:07;13.45;;;3.15;;
71162;SDS011;58858;50.948;6.566;2023-05-02T08:01:09;6.18;;;2.25;;
71162;SDS011;58858;50.948;6.566;2023-05-02T08:11:10;6.22;;;1.70;;
71162;SDS011;58858;50.948;6.566;2023-05-02T08:21:11;4.57;;;1.98;;
71162;SDS011;58858;50.948;6.566;2023-05-02T08:31:12;5.68;;;1.83;;
71162;SDS011;58858;50.948;6.566;2023-05-02T08:41:14;8.15;;;1.70;;
71162;SDS011;58858;50.948;6.566;2023-05-02T08:51:17;4.93;;;1.27;;
71162;SDS011;58858;50.948;6.566;2023-05-02T09:01:18;6.00;;;2.22;;
71162;SDS011;58858;50.948;6.566;2023-05-02T09:11:22;10.52;;;2.38;;
71162;SDS011;58858;50.948;6.566;2023-05-02T09:21:25;5.07;;;2.10;;
71162;SDS011;58858;50.948;6.566;2023-05-02T09:31:34;7.45;;;2.85;;
71162;SDS011;58858;50.948;6.566;2023-05-02T09:41:39;4.72;;;1.70;;
71162;SDS011;58858;50.948;6.566;2023-05-02T09:51:42;8.05;;;2.50;;
71162;SDS011;58858;50.948;6.566;2023-05-02T10:01:43;6.22;;;2.53;;
71162;SDS011;58858;50.948;6.566;2023-05-02T10:11:44;11.80;;;2.58;;
71162;SDS011;58858;50.948;6.566;2023-05-02T10:21:46;20.13;;;3.05;;
71162;SDS011;58858;50.948;6.566;2023-05-02T10:31:47;7.00;;;2.22;;
71162;SDS011;58858;50.948;6.566;2023-05-02T10:41:49;7.10;;;2.90;;
71162;SDS011;58858;50.948;6.566;2023-05-02T10:51:51;10.70;;;3.13;;
71162;SDS011;58858;50.948;6.566;2023-05-02T11:01:52;5.85;;;2.33;;
71162;SDS011;58858;50.948;6.566;2023-05-02T11:11:56;6.50;;;3.45;;
71162;SDS011;58858;50.948;6.566;2023-05-02T11:32:17;6.00;;;2.60;;
71162;SDS011;58858;50.948;6.566;2023-05-02T11:42:27;7.70;;;2.83;;
71162;SDS011;58858;50.948;6.566;2023-05-02T11:52:29;8.95;;;3.28;;
71162;SDS011;58858;50.948;6.566;2023-05-02T12:03:05;10.30;;;4.15;;
71162;SDS011;58858;50.948;6.566;2023-05-02T12:13:02;9.80;;;3.65;;
71162;SDS011;58858;50.948;6.566;2023-05-02T12:23:04;9.20;;;2.95;;
71162;SDS011;58858;50.948;6.566;2023-05-02T12:33:12;15.38;;;3.67;;
71162;SDS011;58858;50.948;6.566;2023-05-02T12:43:13;7.65;;;2.95;;
71162;SDS011;58858;50.948;6.566;2023-05-02T12:53:14;10.73;;;3.58;;
71162;SDS011;58858;50.948;6.566;2023-05-02T13:03:15;12.98;;;3.33;;
71162;SDS011;58858;50.948;6.566;2023-05-02T13:13:16;10.68;;;3.25;;
71162;SDS011;58858;50.948;6.566;2023-05-02T13:23:18;9.55;;;3.15;;
71162;SDS011;58858;50.948;6.566;2023-05-02T13:33:19;9.75;;;3.35;;
71162;SDS011;58858;50.948;6.566;2023-05-02T13:43:20;9.32;;;3.08;;
71162;SDS011;58858;50.948;6.566;2023-05-02T13:53:21;8.35;;;3.67;;
71162;SDS011;58858;50.948;6.566;2023-05-02T14:03:22;5.53;;;2.60;;
71162;SDS011;58858;50.948;6.566;2023-05-02T14:13:23;7.30;;;3.15;;
71162;SDS011;58858;50.948;6.566;2023-05-02T14:23:25;9.65;;;2.88;;
71162;SDS011;58858;50.948;6.566;2023-05-02T14:33:27;6.60;;;3.17;;
71162;SDS011;58858;50.948;6.566;2023-05-02T14:43:28;6.57;;;2.78;;
71162;SDS011;58858;50.948;6.566;2023-05-02T14:53:30;6.70;;;3.15;;
71162;SDS011;58858;50.948;6.566;2023-05-02T15:03:31;9.07;;;3.15;;
71162;SDS011;58858;50.948;6.566;2023-05-02T15:13:32;5.97;;;2.90;;
71162;SDS011;58858;50.948;6.566;2023-05-02T15:23:33;5.57;;;2.78;;
71162;SDS011;58858;50.948;6.566;2023-05-02T15:33:34;8.68;;;3.33;;
71162;SDS011;58858;50.948;6.566;2023-05-02T15:43:35;8.57;;;3.38;;
71162;SDS011;58858;50.948;6.566;2023-05-02T15:53:37;6.72;;;3.72;;
71162;SDS011;58858;50.948;6.566;2023-05-02T16:03:41;9.97;;;3.13;;
71162;SDS011;58858;50.948;6.566;2023-05-02T16:13:42;10.60;;;3.55;;
71162;SDS011;58858;50.948;6.566;2023-05-02T16:23:43;7.28;;;3.58;;
71162;SDS011;58858;50.948;6.566;2023-05-02T16:33:44;5.78;;;3.00;;
71162;SDS011;58858;50.948;6.566;2023-05-02T16:43:48;8.75;;;4.25;;
71162;SDS011;58858;50.948;6.566;2023-05-02T16:53:49;7.20;;;4.30;;
71162;SDS011;58858;50.948;6.566;2023-05-02T17:03:50;8.82;;;3.53;;
71162;SDS011;58858;50.948;6.566;2023-05-02T17:13:51;4.57;;;3.63;;
71162;SDS011;58858;50.948;6.566;2023-05-02T17:23:52;6.70;;;2.78;;
71162;SDS011;58858;50.948;6.566;2023-05-02T17:33:53;7.53;;;3.28;;
71162;SDS011;58858;50.948;6.566;2023-05-02T17:43:55;8.75;;;3.42;;
71162;SDS011;58858;50.948;6.566;2023-05-02T17:53:56;6.25;;;3.30;;
71162;SDS011;58858;50.948;6.566;2023-05-02T18:03:57;13.23;;;3.70;;
71162;SDS011;58858;50.948;6.566;2023-05-02T18:13:58;6.20;;;3.50;;
71162;SDS011;58858;50.948;6.566;2023-05-02T18:24:03;7.53;;;2.60;;
71162;SDS011;58858;50.948;6.566;2023-05-02T18:34:04;7.43;;;2.95;;
71162;SDS011;58858;50.948;6.566;2023-05-02T18:44:05;10.50;;;3.22;;
71162;SDS011;58858;50.948;6.566;2023-05-02T18:54:09;5.18;;;2.90;;
71162;SDS011;58858;50.948;6.566;2023-05-02T19:04:10;9.95;;;3.13;;
71162;SDS011;58858;50.948;6.566;2023-05-02T19:14:11;15.45;;;4.25;;
71162;SDS011;58858;50.948;6.566;2023-05-02T19:24:13;9.63;;;4.43;;
71162;SDS011;58858;50.948;6.566;2023-05-02T19:34:14;9.88;;;3.75;;
71162;SDS011;58858;50.948;6.566;2023-05-02T19:44:15;11.52;;;4.63;;
71162;SDS011;58858;50.948;6.566;2023-05-02T19:54:17;18.60;;;3.92;;
71162;SDS011;58858;50.948;6.566;2023-05-02T20:04:18;10.65;;;3.55;;
71162;SDS011;58858;50.948;6.566;2023-05-02T20:14:20;7.80;;;3.20;;
71162;SDS011;58858;50.948;6.566;2023-05-02T20:24:21;8.75;;;4.15;;
71162;SDS011;58858;50.948;6.566;2023-05-02T20:34:22;10.40;;;3.58;;
71162;SDS011;58858;50.948;6.566;2023-05-02T20:44:23;7.85;;;3.25;;
71162;SDS011;58858;50.948;6.566;2023-05-02T20:54:25;12.65;;;3.95;;
71162;SDS011;58858;50.948;6.566;2023-05-02T21:04:27;12.85;;;4.10;;
71162;SDS011;58858;50.948;6.566;2023-05-02T21:14:28;9.25;;;4.20;;
71162;SDS011;58858;50.948;6.566;2023-05-02T21:24:29;7.75;;;3.67;;
71162;SDS011;58858;50.948;6.566;2023-05-02T21:34:30;8.63;;;4.72;;
71162;SDS011;58858;50.948;6.566;2023-05-02T21:44:31;10.95;;;4.18;;
71162;SDS011;58858;50.948;6.566;2023-05-02T21:54:32;7.68;;;4.60;;
71162;SDS011;58858;50.948;6.566;2023-05-02T22:04:33;7.22;;;4.68;;
71162;SDS011;58858;50.948;6.566;2023-05-02T22:14:34;14.38;;;5.05;;
71162;SDS011;58858;50.948;6.566;2023-05-02T22:24:35;10.93;;;4.82;;
71162;SDS011;58858;50.948;6.566;2023-05-02T22:34:36;9.65;;;4.78;;
71162;SDS011;58858;50.948;6.566;2023-05-02T22:44:37;10.43;;;4.22;;
71162;SDS011;58858;50.948;6.566;2023-05-02T22:54:39;10.07;;;4.82;;
71162;SDS011;58858;50.948;6.566;2023-05-02T23:04:40;8.02;;;4.63;;
71162;SDS011;58858;50.948;6.566;2023-05-02T23:14:41;6.50;;;4.00;;
71162;SDS011;58858;50.948;6.566;2023-05-02T23:24:44;7.00;;;3.63;;
71162;SDS011;58858;50.948;6.566;2023-05-02T23:34:46;12.63;;;4.40;;
71162;SDS011;58858;50.948;6.566;2023-05-02T23:44:47;12.57;;;4.57;;
71162;SDS011;58858;50.948;6.566;2023-05-02T23:54:48;10.02;;;4.18;;
